METAR Data
IDs: Format: Raw Decoded Include TAF

Data at: 0217 UTC 20 Jan 2022

LOWW 200150Z 28018KT 9999 FEW036 05/M02 Q1019 NOSIG